createdAt,value
2022-08-17T00:01:31.434Z,16.97
2022-08-17T00:04:19.335Z,17.03
2022-08-17T00:06:46.254Z,17.21
2022-08-17T00:09:18.431Z,17.25
2022-08-17T00:12:35.485Z,17.28
2022-08-17T00:14:34.976Z,17.17
2022-08-17T00:17:02.711Z,17.26
2022-08-17T00:19:29.751Z,17.27
2022-08-17T00:22:35.079Z,17.32
2022-08-17T00:24:47.046Z,17.33
2022-08-17T00:27:13.700Z,17.32
2022-08-17T00:29:40.551Z,17.21
2022-08-17T00:33:13.795Z,17.30
2022-08-17T00:34:53.864Z,17.34
2022-08-17T00:37:20.464Z,17.36
2022-08-17T00:39:47.136Z,17.27
2022-08-17T00:42:18.290Z,17.27
2022-08-17T00:44:45.524Z,17.27
2022-08-17T00:47:13.524Z,17.12
2022-08-17T00:49:40.221Z,17.24
2022-08-17T00:52:15.601Z,17.34
2022-08-17T00:54:44.611Z,17.21
2022-08-17T00:57:14.721Z,17.26
2022-08-17T00:59:55.967Z,17.19
2022-08-17T01:02:36.676Z,17.24
2022-08-17T01:05:13.166Z,17.24
2022-08-17T01:07:40.307Z,17.18
2022-08-17T01:10:57.627Z,17.23
2022-08-17T01:12:57.927Z,17.22
2022-08-17T01:15:24.522Z,17.24
2022-08-17T01:17:51.213Z,17.29
2022-08-17T01:20:18.026Z,17.28
2022-08-17T01:22:44.623Z,17.29
2022-08-17T01:25:12.620Z,17.23
2022-08-17T01:27:39.720Z,17.28
2022-08-17T01:30:56.548Z,17.38
2022-08-17T01:32:56.578Z,17.29
2022-08-17T01:35:23.170Z,17.34
2022-08-17T01:37:49.817Z,17.29
2022-08-17T01:40:29.439Z,17.30
2022-08-17T01:42:59.826Z,17.34
2022-08-17T01:45:30.440Z,17.31
2022-08-17T01:47:57.052Z,17.32
2022-08-17T01:50:31.385Z,17.25
2022-08-17T01:53:11.071Z,17.21
2022-08-17T01:55:50.672Z,17.23
2022-08-17T01:58:17.755Z,17.23
2022-08-17T02:01:00.250Z,17.14
2022-08-17T02:03:32.197Z,17.16
2022-08-17T02:05:58.823Z,17.09
2022-08-17T02:08:39.300Z,17.07
2022-08-17T02:11:15.808Z,17.05
2022-08-17T02:13:46.797Z,17.05
2022-08-17T02:16:14.250Z,17.03
2022-08-17T02:18:41.283Z,17.04
2022-08-17T02:21:08.612Z,17.05
2022-08-17T02:23:37.848Z,17.09
2022-08-17T02:26:05.373Z,17.07
2022-08-17T02:28:32.002Z,17.08
2022-08-17T02:31:04.596Z,17.06
2022-08-17T02:33:41.901Z,17.06
2022-08-17T02:36:11.517Z,17.08
2022-08-17T02:38:39.460Z,16.96
2022-08-17T02:41:06.502Z,17.06
2022-08-17T02:43:33.225Z,16.96
2022-08-17T02:45:59.774Z,16.95
2022-08-17T02:48:30.939Z,17.07
2022-08-17T02:50:59.370Z,17.03
2022-08-17T02:53:26.106Z,16.99
2022-08-17T02:55:52.843Z,17.10
2022-08-17T02:58:35.485Z,17.08
2022-08-17T03:01:07.013Z,17.02
2022-08-17T03:03:33.893Z,17.02
2022-08-17T03:06:00.827Z,17.02
2022-08-17T03:08:27.475Z,16.95
2022-08-17T03:10:54.104Z,17.08
2022-08-17T03:13:20.845Z,17.17
2022-08-17T03:15:48.588Z,17.50
2022-08-17T03:18:24.320Z,17.71
2022-08-17T03:20:57.202Z,17.81
2022-08-17T03:23:25.353Z,18.06
2022-08-17T03:25:53.630Z,18.18
2022-08-17T03:28:21.417Z,18.01
2022-08-17T03:30:48.025Z,17.77
2022-08-17T03:33:14.739Z,17.75
2022-08-17T03:35:41.817Z,17.59
2022-08-17T03:38:12.206Z,17.65
2022-08-17T03:40:56.729Z,17.51
2022-08-17T03:43:27.822Z,17.53
2022-08-17T03:46:28.201Z,17.51
2022-08-17T03:49:18.903Z,17.52
2022-08-17T03:52:04.000Z,17.50
2022-08-17T03:54:49.283Z,17.63
2022-08-17T03:57:16.458Z,17.66
2022-08-17T03:59:43.153Z,17.81
2022-08-17T04:02:17.478Z,18.34
2022-08-17T04:04:44.388Z,19.38
2022-08-17T04:07:11.099Z,19.73
2022-08-17T04:09:38.106Z,19.93
2022-08-17T04:12:05.388Z,19.89
2022-08-17T04:14:45.988Z,19.98
2022-08-17T04:17:26.303Z,20.05
2022-08-17T04:19:54.007Z,20.17
2022-08-17T04:22:32.622Z,20.20
2022-08-17T04:25:15.729Z,20.20
2022-08-17T04:27:42.327Z,20.53
2022-08-17T04:30:09.736Z,20.38
2022-08-17T04:33:02.282Z,20.62
2022-08-17T04:35:39.452Z,20.69
2022-08-17T04:38:07.597Z,20.68
2022-08-17T04:40:52.895Z,20.35
2022-08-17T04:43:21.762Z,20.34
2022-08-17T04:46:06.355Z,20.46
2022-08-17T04:48:38.823Z,20.44
2022-08-17T04:51:10.504Z,20.49
2022-08-17T04:53:38.726Z,20.70
2022-08-17T04:56:05.880Z,20.84
2022-08-17T04:58:32.575Z,20.49
2022-08-17T05:00:59.283Z,20.73
2022-08-17T05:03:25.962Z,21.01
2022-08-17T05:05:53.718Z,21.09
2022-08-17T05:08:21.387Z,21.05
2022-08-17T05:10:48.952Z,21.24
2022-08-17T05:13:21.512Z,21.01
2022-08-17T05:15:49.909Z,21.19
2022-08-17T05:18:17.092Z,21.00
2022-08-17T05:20:44.542Z,20.67
2022-08-17T05:23:14.759Z,20.39
2022-08-17T05:25:46.257Z,20.15
2022-08-17T05:28:15.284Z,20.00
2022-08-17T05:30:43.903Z,19.79
2022-08-17T05:33:13.362Z,19.84
2022-08-17T05:35:46.996Z,19.96
2022-08-17T05:38:14.911Z,20.06
2022-08-17T05:40:43.310Z,20.02
2022-08-17T05:43:11.531Z,20.15
2022-08-17T05:45:55.229Z,20.16
2022-08-17T05:48:36.738Z,20.42
2022-08-17T05:51:34.685Z,20.40
2022-08-17T05:54:13.705Z,20.63
2022-08-17T05:57:02.278Z,20.83
2022-08-17T06:00:10.973Z,21.08
2022-08-17T06:02:59.330Z,20.97
2022-08-17T06:06:01.453Z,21.33
2022-08-17T06:08:56.188Z,21.16
2022-08-17T06:11:22.856Z,21.03
2022-08-17T06:14:08.261Z,21.18
2022-08-17T06:16:39.782Z,21.11
2022-08-17T06:19:17.623Z,21.50
2022-08-17T06:21:47.883Z,21.38
2022-08-17T06:24:34.288Z,21.49
2022-08-17T06:27:09.713Z,21.56
2022-08-17T06:29:45.107Z,21.69
2022-08-17T06:32:12.983Z,21.62
2022-08-17T06:34:40.544Z,21.86
2022-08-17T06:37:10.236Z,21.90
2022-08-17T06:40:04.137Z,21.88
2022-08-17T06:43:04.982Z,21.83
2022-08-17T06:45:49.500Z,21.98
2022-08-17T06:48:25.906Z,22.28
2022-08-17T06:50:57.846Z,22.45
2022-08-17T06:53:32.759Z,22.26
2022-08-17T06:56:06.381Z,22.38
2022-08-17T06:58:33.752Z,22.20
2022-08-17T07:01:11.764Z,22.49
2022-08-17T07:03:54.559Z,22.66
2022-08-17T07:06:24.265Z,22.81
2022-08-17T07:08:55.987Z,22.97
2022-08-17T07:11:54.794Z,22.93
2022-08-17T07:14:41.055Z,22.98
2022-08-17T07:17:13.355Z,22.95
2022-08-17T07:19:45.390Z,23.08
2022-08-17T07:22:57.693Z,23.30
2022-08-17T07:25:26.369Z,23.51
2022-08-17T07:27:55.912Z,23.71
2022-08-17T07:30:45.747Z,23.45
2022-08-17T07:33:20.272Z,23.49
2022-08-17T07:35:48.406Z,23.74
2022-08-17T07:38:29.938Z,23.62
2022-08-17T07:41:03.499Z,23.58
2022-08-17T07:43:37.219Z,23.61
2022-08-17T07:46:38.534Z,23.73
2022-08-17T07:49:06.721Z,23.95
2022-08-17T07:51:41.088Z,24.05
2022-08-17T07:54:22.443Z,24.07
2022-08-17T07:57:01.003Z,24.10
2022-08-17T07:59:28.615Z,24.08
2022-08-17T08:02:06.806Z,24.13
2022-08-17T08:04:59.668Z,24.39
2022-08-17T08:07:32.034Z,24.27
2022-08-17T08:10:07.455Z,24.80
2022-08-17T08:12:36.922Z,24.92
2022-08-17T08:15:03.455Z,24.41
2022-08-17T08:17:36.523Z,24.35
2022-08-17T08:20:37.581Z,24.29
2022-08-17T08:23:19.282Z,24.05
2022-08-17T08:26:26.490Z,24.11
2022-08-17T08:29:14.775Z,23.93
2022-08-17T08:31:56.266Z,23.98
2022-08-17T08:35:02.121Z,24.23
2022-08-17T08:37:35.751Z,24.53
2022-08-17T08:40:11.076Z,24.89
2022-08-17T08:42:40.552Z,25.15
2022-08-17T08:45:43.439Z,24.80
2022-08-17T08:48:53.433Z,25.14
2022-08-17T08:51:46.231Z,25.13
2022-08-17T08:54:35.219Z,25.18
2022-08-17T08:57:26.710Z,24.93
2022-08-17T08:59:59.794Z,24.96
2022-08-17T09:02:51.571Z,25.06
2022-08-17T09:05:30.544Z,25.00
2022-08-17T09:08:28.274Z,25.16
2022-08-17T09:11:08.376Z,25.24
2022-08-17T09:13:59.050Z,25.56
2022-08-17T09:16:29.943Z,25.28
2022-08-17T09:19:42.714Z,25.40
2022-08-17T09:22:24.241Z,25.71
2022-08-17T09:25:03.183Z,25.82
2022-08-17T09:27:51.032Z,26.16
2022-08-17T09:30:18.594Z,25.71
2022-08-17T09:32:50.024Z,25.72
2022-08-17T09:35:37.080Z,25.52
2022-08-17T09:38:16.226Z,25.33
2022-08-17T09:40:53.529Z,25.68
2022-08-17T09:43:36.838Z,25.59
2022-08-17T09:46:09.601Z,25.45
2022-08-17T09:48:40.679Z,25.77
2022-08-17T09:51:25.230Z,25.73
2022-08-17T09:53:52.085Z,25.60
2022-08-17T09:57:00.865Z,25.34
2022-08-17T09:59:44.832Z,25.23
2022-08-17T10:02:33.355Z,25.18
2022-08-17T10:05:04.813Z,25.27
2022-08-17T10:07:56.093Z,25.04
2022-08-17T10:10:29.541Z,25.15
2022-08-17T10:13:10.602Z,25.34
2022-08-17T10:15:56.082Z,25.18
2022-08-17T10:18:41.471Z,25.23
2022-08-17T10:21:29.915Z,25.42
2022-08-17T10:24:20.249Z,25.69
2022-08-17T10:26:57.121Z,25.65
2022-08-17T10:29:54.497Z,25.90
2022-08-17T10:32:28.307Z,26.48
2022-08-17T10:35:16.706Z,26.92
2022-08-17T10:38:15.387Z,26.51
2022-08-17T10:40:49.600Z,26.89
2022-08-17T10:43:32.985Z,26.66
2022-08-17T10:46:30.417Z,26.14
2022-08-17T10:49:17.059Z,25.68
2022-08-17T10:51:48.252Z,25.80
2022-08-17T10:54:45.692Z,25.63
2022-08-17T10:57:31.792Z,25.71
2022-08-17T11:00:00.764Z,25.84
2022-08-17T11:02:39.423Z,25.75
2022-08-17T11:05:28.743Z,26.01
2022-08-17T11:08:26.267Z,26.14
2022-08-17T11:11:17.870Z,26.48
2022-08-17T11:14:18.003Z,26.95
2022-08-17T11:16:47.945Z,26.67
2022-08-17T11:19:24.024Z,26.28
2022-08-17T11:22:02.651Z,26.14
2022-08-17T11:24:33.001Z,26.32
2022-08-17T11:27:29.115Z,26.60
2022-08-17T11:30:02.719Z,26.32
2022-08-17T11:32:47.236Z,26.08
2022-08-17T11:35:14.317Z,26.02
2022-08-17T11:38:08.697Z,26.03
2022-08-17T11:40:46.637Z,26.27
2022-08-17T11:43:42.291Z,26.49
2022-08-17T11:47:08.474Z,26.34
2022-08-17T11:50:27.118Z,26.28
2022-08-17T11:52:54.978Z,26.29
2022-08-17T11:55:38.559Z,26.50
2022-08-17T11:58:34.197Z,26.73
2022-08-17T12:01:02.114Z,26.67
2022-08-17T12:03:31.937Z,26.83
2022-08-17T12:06:20.360Z,26.78
2022-08-17T12:09:21.744Z,26.46
2022-08-17T12:12:12.410Z,26.48
2022-08-17T12:17:41.184Z,26.44
2022-08-17T12:20:16.285Z,26.59
2022-08-17T12:22:54.879Z,26.33
2022-08-17T12:25:26.965Z,26.17
2022-08-17T12:28:06.339Z,26.24
2022-08-17T12:30:34.701Z,26.49
2022-08-17T12:33:01.386Z,26.73
2022-08-17T12:35:35.988Z,26.52
2022-08-17T12:38:03.266Z,26.57
2022-08-17T12:40:32.110Z,26.50
2022-08-17T12:43:03.240Z,26.70
2022-08-17T12:45:32.480Z,26.69
2022-08-17T12:48:08.058Z,26.54
2022-08-17T12:50:39.948Z,26.56
2022-08-17T12:53:36.003Z,26.76
2022-08-17T12:56:07.630Z,26.83
2022-08-17T12:58:47.786Z,26.94
2022-08-17T13:01:16.575Z,26.92
2022-08-17T13:03:50.381Z,26.75
2022-08-17T13:06:28.648Z,26.57
2022-08-17T13:08:55.277Z,26.75
2022-08-17T13:11:24.850Z,26.76
2022-08-17T13:13:55.105Z,26.75
2022-08-17T13:16:26.940Z,26.65
2022-08-17T13:19:14.967Z,26.60
2022-08-17T13:21:54.242Z,26.66
2022-08-17T13:24:20.808Z,26.66
2022-08-17T13:27:07.890Z,26.76
2022-08-17T13:29:35.074Z,26.80
2022-08-17T13:32:05.064Z,27.02
2022-08-17T13:35:03.741Z,27.11
2022-08-17T13:37:34.446Z,27.02
2022-08-17T13:40:10.189Z,26.85
2022-08-17T13:42:52.572Z,26.85
2022-08-17T13:45:36.753Z,26.85
2022-08-17T13:48:14.112Z,26.65
2022-08-17T13:50:49.409Z,26.51
2022-08-17T13:53:26.750Z,26.55
2022-08-17T13:55:55.357Z,26.71
2022-08-17T13:58:56.696Z,26.84
2022-08-17T14:01:32.979Z,26.71
2022-08-17T14:04:01.509Z,26.61
2022-08-17T14:06:53.021Z,26.91
2022-08-17T14:09:23.250Z,27.09
2022-08-17T14:11:51.160Z,27.06
2022-08-17T14:14:19.787Z,26.96
2022-08-17T14:16:46.360Z,27.02
2022-08-17T14:19:14.107Z,26.96
2022-08-17T14:21:43.249Z,26.97
2022-08-17T14:24:21.889Z,26.93
2022-08-17T14:26:49.627Z,26.88
2022-08-17T14:29:16.264Z,26.70
2022-08-17T14:31:42.904Z,26.56
2022-08-17T14:34:20.191Z,26.60
2022-08-17T14:36:48.524Z,26.53
2022-08-17T14:39:15.916Z,26.68
2022-08-17T14:41:42.856Z,26.53
2022-08-17T14:44:13.047Z,26.64
2022-08-17T14:46:41.255Z,26.64
2022-08-17T14:49:10.739Z,26.62
2022-08-17T14:51:43.606Z,26.58
2022-08-17T14:54:34.169Z,26.56
2022-08-17T14:57:23.253Z,26.45
2022-08-17T14:59:54.429Z,26.31
2022-08-17T15:02:30.436Z,26.35
2022-08-17T15:05:05.546Z,26.26
2022-08-17T15:07:32.161Z,26.38
2022-08-17T15:10:01.568Z,26.31
2022-08-17T15:12:32.639Z,26.43
2022-08-17T15:15:01.100Z,26.38
2022-08-17T15:17:43.831Z,26.46
2022-08-17T15:20:24.809Z,26.41
2022-08-17T15:22:55.405Z,26.39
2022-08-17T15:25:22.765Z,26.39
2022-08-17T15:27:49.589Z,26.38
2022-08-17T15:30:16.486Z,26.27
2022-08-17T15:32:50.839Z,26.32
2022-08-17T15:35:26.970Z,26.23
2022-08-17T15:38:04.587Z,26.23
2022-08-17T15:40:37.224Z,26.22
2022-08-17T15:43:07.633Z,26.12
2022-08-17T15:45:34.700Z,26.22
2022-08-17T15:48:01.279Z,26.07
2022-08-17T15:50:27.932Z,26.25
2022-08-17T15:52:57.966Z,26.21
2022-08-17T15:55:26.873Z,26.10
2022-08-17T15:57:53.863Z,26.14
2022-08-17T16:00:21.200Z,26.16
2022-08-17T16:03:45.127Z,26.14
2022-08-17T16:05:35.215Z,26.12
2022-08-17T16:08:01.857Z,26.06
2022-08-17T16:10:34.994Z,26.23
2022-08-17T16:13:03.400Z,26.15
2022-08-17T16:15:32.119Z,26.01
2022-08-17T16:17:58.851Z,26.04
2022-08-17T16:20:25.666Z,26.03
2022-08-17T16:22:52.587Z,25.94
2022-08-17T16:25:50.376Z,25.88
2022-08-17T16:28:12.665Z,25.87
2022-08-17T16:30:39.360Z,25.71
2022-08-17T16:33:06.019Z,25.72
2022-08-17T16:35:33.352Z,25.75
2022-08-17T16:37:59.969Z,25.66
2022-08-17T16:40:28.787Z,25.59
2022-08-17T16:42:57.799Z,25.60
2022-08-17T16:45:31.413Z,25.65
2022-08-17T16:47:59.080Z,25.57
2022-08-17T16:50:25.977Z,25.44
2022-08-17T16:52:52.795Z,25.42
2022-08-17T16:55:22.997Z,25.49
2022-08-17T16:57:50.730Z,25.41
2022-08-17T17:00:19.225Z,25.40
2022-08-17T17:02:47.953Z,25.34
2022-08-17T17:05:42.708Z,25.32
2022-08-17T17:08:12.899Z,25.19
2022-08-17T17:10:46.066Z,25.28
2022-08-17T17:13:32.468Z,25.18
2022-08-17T17:16:11.889Z,25.22
2022-08-17T17:18:58.415Z,25.11
2022-08-17T17:21:33.293Z,25.06
2022-08-17T17:24:06.133Z,25.02
2022-08-17T17:27:07.359Z,25.05
2022-08-17T17:29:58.135Z,24.83
2022-08-17T17:32:46.188Z,24.86
2022-08-17T17:35:20.529Z,24.87
2022-08-17T17:37:47.763Z,24.83
2022-08-17T17:40:23.151Z,24.76
2022-08-17T17:42:52.951Z,24.75
2022-08-17T17:45:31.894Z,24.82
2022-08-17T17:47:58.525Z,24.77
2022-08-17T17:50:37.670Z,24.73
2022-08-17T17:53:18.299Z,24.76
2022-08-17T17:56:07.432Z,24.76
2022-08-17T17:58:54.116Z,24.76
2022-08-17T18:01:43.046Z,24.83
2022-08-17T18:04:32.568Z,24.79
2022-08-17T18:07:10.077Z,24.75
2022-08-17T18:10:00.976Z,24.69
2022-08-17T18:12:37.208Z,24.72
2022-08-17T18:15:14.009Z,24.68
2022-08-17T18:18:03.846Z,24.63
2022-08-17T18:20:36.449Z,24.59
2022-08-17T18:23:17.990Z,24.66
2022-08-17T18:25:46.894Z,24.61
2022-08-17T18:28:25.246Z,24.50
2022-08-17T18:31:03.932Z,24.48
2022-08-17T18:33:30.586Z,24.42
2022-08-17T18:35:58.685Z,24.42
2022-08-17T18:38:41.964Z,24.47
2022-08-17T18:41:21.102Z,24.36
2022-08-17T18:44:03.745Z,24.24
2022-08-17T18:46:35.948Z,24.26
2022-08-17T18:49:08.529Z,24.18
2022-08-17T18:51:41.596Z,24.13
2022-08-17T18:54:24.966Z,24.10
2022-08-17T18:56:58.827Z,24.02
2022-08-17T18:59:49.330Z,23.90
2022-08-17T19:02:32.496Z,23.80
2022-08-17T19:05:26.739Z,23.75
2022-08-17T19:07:53.641Z,23.80
2022-08-17T19:10:46.329Z,23.72
2022-08-17T19:13:24.469Z,23.75
2022-08-17T19:16:11.575Z,23.82
2022-08-17T19:19:10.277Z,23.85
2022-08-17T19:21:40.441Z,23.73
2022-08-17T19:24:13.535Z,23.78
2022-08-17T19:26:51.007Z,23.78
2022-08-17T19:29:25.628Z,23.75
2022-08-17T19:31:55.227Z,23.69
2022-08-17T19:34:33.242Z,23.61
2022-08-17T19:37:06.898Z,23.60
2022-08-17T19:40:24.513Z,23.58
2022-08-17T19:43:15.020Z,23.60
2022-08-17T19:45:47.503Z,23.54
2022-08-17T19:48:45.579Z,23.50
2022-08-17T19:51:34.419Z,23.39
2022-08-17T19:54:14.207Z,23.32
2022-08-17T19:57:19.168Z,23.39
2022-08-17T20:00:17.670Z,23.39
2022-08-17T20:02:57.351Z,23.30
2022-08-17T20:06:01.031Z,23.21
2022-08-17T20:08:26.881Z,23.18
2022-08-17T20:11:02.025Z,23.22
2022-08-17T20:13:40.178Z,23.17
2022-08-17T20:16:07.976Z,23.06
2022-08-17T20:18:38.564Z,22.99
2022-08-17T20:22:03.487Z,23.09
2022-08-17T20:24:30.068Z,23.05
2022-08-17T20:27:11.403Z,22.98
2022-08-17T20:30:01.744Z,23.14
2022-08-17T20:32:31.451Z,22.97
2022-08-17T20:35:08.186Z,22.99
2022-08-17T20:37:36.548Z,22.86
2022-08-17T20:40:09.331Z,22.94
2022-08-17T20:42:36.668Z,22.82
2022-08-17T20:45:26.426Z,22.95
2022-08-17T20:48:30.463Z,22.87
2022-08-17T20:50:52.515Z,22.78
2022-08-17T20:53:47.297Z,22.71
2022-08-17T20:56:41.788Z,22.64
2022-08-17T20:59:08.685Z,22.39
2022-08-17T21:01:40.395Z,22.31
2022-08-17T21:04:10.520Z,22.29
2022-08-17T21:07:17.281Z,22.26
2022-08-17T21:09:44.580Z,22.24
2022-08-17T21:12:11.891Z,22.21
2022-08-17T21:15:05.680Z,22.15
2022-08-17T21:17:56.549Z,22.04
2022-08-17T21:20:32.578Z,21.95
2022-08-17T21:23:08.588Z,21.94
2022-08-17T21:26:20.396Z,22.07
2022-08-17T21:29:30.349Z,22.13
2022-08-17T21:32:01.671Z,22.16
2022-08-17T21:34:35.844Z,22.13
2022-08-17T21:37:23.418Z,22.14
2022-08-17T21:40:19.303Z,22.00
2022-08-17T21:42:50.588Z,22.04
2022-08-17T21:45:29.779Z,22.04
2022-08-17T21:48:14.571Z,22.03
2022-08-17T21:50:44.223Z,22.00
2022-08-17T21:53:24.033Z,21.93
2022-08-17T21:55:52.241Z,21.85
2022-08-17T21:58:40.290Z,21.88
2022-08-17T22:01:21.158Z,21.93
2022-08-17T22:03:58.853Z,21.87
2022-08-17T22:06:29.960Z,21.87
2022-08-17T22:09:11.745Z,21.82
2022-08-17T22:11:51.277Z,21.87
2022-08-17T22:14:21.395Z,21.56
2022-08-17T22:16:48.514Z,21.72
2022-08-17T22:19:15.440Z,21.54
2022-08-17T22:21:42.036Z,21.67
2022-08-17T22:24:21.715Z,21.63
2022-08-17T22:27:00.457Z,21.68
2022-08-17T22:29:43.940Z,21.59
2022-08-17T22:32:10.817Z,21.56
2022-08-17T22:34:39.076Z,21.49
2022-08-17T22:37:27.465Z,21.43
2022-08-17T22:39:59.331Z,21.44
2022-08-17T22:42:25.999Z,21.38
2022-08-17T22:44:54.635Z,21.37
2022-08-17T22:47:32.039Z,21.34
2022-08-17T22:50:02.029Z,21.34
2022-08-17T22:53:14.382Z,21.40
2022-08-17T22:56:10.699Z,21.35
2022-08-17T22:59:20.990Z,21.22
2022-08-17T23:02:12.597Z,21.25
2022-08-17T23:04:42.859Z,21.23
2022-08-17T23:07:09.519Z,21.19
2022-08-17T23:09:36.367Z,21.20
2022-08-17T23:12:07.903Z,21.25
2022-08-17T23:14:39.294Z,21.10
2022-08-17T23:17:06.552Z,20.99
2022-08-17T23:19:33.604Z,21.00
2022-08-17T23:22:02.336Z,20.96
2022-08-17T23:24:30.798Z,20.95
2022-08-17T23:26:58.169Z,20.75
2022-08-17T23:29:29.257Z,20.81
2022-08-17T23:31:57.927Z,20.82
2022-08-17T23:34:25.603Z,20.80
2022-08-17T23:36:53.200Z,20.78
2022-08-17T23:39:27.725Z,20.75
2022-08-17T23:41:56.531Z,20.72
2022-08-17T23:44:23.505Z,20.72
2022-08-17T23:46:53.760Z,20.72
2022-08-17T23:49:20.634Z,20.72
2022-08-17T23:51:48.305Z,20.66
2022-08-17T23:54:26.625Z,20.63
2022-08-17T23:56:53.184Z,20.51
2022-08-17T23:59:22.490Z,20.49
